sensor_id;sensor_type;location;lat;lon;timestamp;P1;durP1;ratioP1;P2;durP2;ratioP2
60641;SDS011;46837;52.446;-1.930;2022-07-17T00:00:07;17.66;;;12.52;;
60641;SDS011;46837;52.446;-1.930;2022-07-17T00:01:07;18.08;;;13.20;;
60641;SDS011;46837;52.446;-1.930;2022-07-17T00:02:07;15.40;;;12.06;;
60641;SDS011;46837;52.446;-1.930;2022-07-17T00:03:07;14.18;;;11.14;;
60641;SDS011;46837;52.446;-1.930;2022-07-17T00:04:07;22.66;;;13.14;;
60641;SDS011;46837;52.446;-1.930;2022-07-17T00:05:07;14.10;;;11.36;;
60641;SDS011;46837;52.446;-1.930;2022-07-17T00:06:07;17.18;;;13.46;;
60641;SDS011;46837;52.446;-1.930;2022-07-17T00:07:07;16.44;;;11.86;;
60641;SDS011;46837;52.446;-1.930;2022-07-17T00:08:07;16.28;;;12.46;;
60641;SDS011;46837;52.446;-1.930;2022-07-17T00:09:07;14.36;;;11.38;;
60641;SDS011;46837;52.446;-1.930;2022-07-17T00:10:07;23.34;;;12.72;;
60641;SDS011;46837;52.446;-1.930;2022-07-17T00:11:07;19.98;;;12.26;;
60641;SDS011;46837;52.446;-1.930;2022-07-17T00:12:07;16.76;;;12.76;;
60641;SDS011;46837;52.446;-1.930;2022-07-17T00:13:07;15.34;;;10.96;;
60641;SDS011;46837;52.446;-1.930;2022-07-17T00:14:07;15.68;;;12.42;;
60641;SDS011;46837;52.446;-1.930;2022-07-17T00:15:07;14.72;;;10.44;;
60641;SDS011;46837;52.446;-1.930;2022-07-17T00:16:07;12.18;;;10.86;;
60641;SDS011;46837;52.446;-1.930;2022-07-17T00:17:07;15.18;;;12.10;;
60641;SDS011;46837;52.446;-1.930;2022-07-17T00:18:07;16.00;;;10.86;;
60641;SDS011;46837;52.446;-1.930;2022-07-17T00:19:07;16.38;;;10.34;;
60641;SDS011;46837;52.446;-1.930;2022-07-17T00:20:07;14.82;;;10.58;;
60641;SDS011;46837;52.446;-1.930;2022-07-17T00:21:07;15.60;;;12.62;;
60641;SDS011;46837;52.446;-1.930;2022-07-17T00:22:07;18.30;;;11.00;;
60641;SDS011;46837;52.446;-1.930;2022-07-17T00:23:07;14.20;;;11.48;;
60641;SDS011;46837;52.446;-1.930;2022-07-17T00:24:07;15.14;;;11.04;;
60641;SDS011;46837;52.446;-1.930;2022-07-17T00:25:07;15.10;;;11.82;;
60641;SDS011;46837;52.446;-1.930;2022-07-17T00:26:07;17.46;;;11.56;;
60641;SDS011;46837;52.446;-1.930;2022-07-17T00:27:07;16.64;;;11.86;;
60641;SDS011;46837;52.446;-1.930;2022-07-17T00:28:07;12.38;;;10.62;;
60641;SDS011;46837;52.446;-1.930;2022-07-17T00:29:07;13.80;;;12.20;;
60641;SDS011;46837;52.446;-1.930;2022-07-17T00:30:07;14.90;;;10.58;;
60641;SDS011;46837;52.446;-1.930;2022-07-17T00:31:07;15.72;;;11.58;;
60641;SDS011;46837;52.446;-1.930;2022-07-17T00:32:07;18.70;;;13.32;;
60641;SDS011;46837;52.446;-1.930;2022-07-17T00:33:07;16.70;;;13.50;;
60641;SDS011;46837;52.446;-1.930;2022-07-17T00:34:07;14.54;;;11.94;;
60641;SDS011;46837;52.446;-1.930;2022-07-17T00:35:07;15.68;;;12.52;;
60641;SDS011;46837;52.446;-1.930;2022-07-17T00:36:07;18.80;;;12.14;;
60641;SDS011;46837;52.446;-1.930;2022-07-17T00:37:07;14.64;;;11.88;;
60641;SDS011;46837;52.446;-1.930;2022-07-17T00:38:07;15.00;;;11.90;;
60641;SDS011;46837;52.446;-1.930;2022-07-17T00:39:07;16.98;;;12.72;;
60641;SDS011;46837;52.446;-1.930;2022-07-17T00:40:07;12.44;;;10.86;;
60641;SDS011;46837;52.446;-1.930;2022-07-17T00:41:07;16.66;;;12.28;;
60641;SDS011;46837;52.446;-1.930;2022-07-17T00:42:10;19.36;;;14.06;;
60641;SDS011;46837;52.446;-1.930;2022-07-17T00:43:07;15.48;;;11.86;;
60641;SDS011;46837;52.446;-1.930;2022-07-17T00:44:09;14.44;;;11.22;;
60641;SDS011;46837;52.446;-1.930;2022-07-17T00:45:07;16.20;;;12.86;;
60641;SDS011;46837;52.446;-1.930;2022-07-17T00:46:07;12.88;;;11.48;;
60641;SDS011;46837;52.446;-1.930;2022-07-17T00:47:11;18.00;;;12.92;;
60641;SDS011;46837;52.446;-1.930;2022-07-17T00:48:09;16.22;;;13.10;;
60641;SDS011;46837;52.446;-1.930;2022-07-17T00:49:07;16.44;;;12.60;;
60641;SDS011;46837;52.446;-1.930;2022-07-17T00:50:07;20.30;;;13.28;;
60641;SDS011;46837;52.446;-1.930;2022-07-17T00:51:07;15.90;;;13.62;;
60641;SDS011;46837;52.446;-1.930;2022-07-17T00:52:07;16.22;;;11.86;;
60641;SDS011;46837;52.446;-1.930;2022-07-17T00:53:07;15.22;;;12.48;;
60641;SDS011;46837;52.446;-1.930;2022-07-17T00:54:07;15.46;;;11.50;;
60641;SDS011;46837;52.446;-1.930;2022-07-17T00:55:07;16.64;;;13.22;;
60641;SDS011;46837;52.446;-1.930;2022-07-17T00:56:07;16.06;;;12.66;;
60641;SDS011;46837;52.446;-1.930;2022-07-17T00:57:09;14.76;;;12.56;;
60641;SDS011;46837;52.446;-1.930;2022-07-17T00:58:07;16.14;;;12.68;;
60641;SDS011;46837;52.446;-1.930;2022-07-17T00:59:07;14.84;;;12.94;;
60641;SDS011;46837;52.446;-1.930;2022-07-17T01:00:10;14.34;;;11.28;;
60641;SDS011;46837;52.446;-1.930;2022-07-17T01:01:07;20.96;;;13.84;;
60641;SDS011;46837;52.446;-1.930;2022-07-17T01:02:07;15.26;;;12.14;;
60641;SDS011;46837;52.446;-1.930;2022-07-17T01:03:07;16.34;;;11.72;;
60641;SDS011;46837;52.446;-1.930;2022-07-17T01:04:07;13.98;;;11.76;;
60641;SDS011;46837;52.446;-1.930;2022-07-17T01:05:07;13.60;;;11.18;;
60641;SDS011;46837;52.446;-1.930;2022-07-17T01:06:07;15.68;;;12.58;;
60641;SDS011;46837;52.446;-1.930;2022-07-17T01:07:07;17.02;;;12.00;;
60641;SDS011;46837;52.446;-1.930;2022-07-17T01:08:07;17.02;;;13.12;;
60641;SDS011;46837;52.446;-1.930;2022-07-17T01:09:09;14.30;;;10.46;;
60641;SDS011;46837;52.446;-1.930;2022-07-17T01:10:07;14.24;;;11.76;;
60641;SDS011;46837;52.446;-1.930;2022-07-17T01:11:07;15.70;;;12.16;;
60641;SDS011;46837;52.446;-1.930;2022-07-17T01:12:07;13.44;;;11.50;;
60641;SDS011;46837;52.446;-1.930;2022-07-17T01:13:07;17.74;;;11.42;;
60641;SDS011;46837;52.446;-1.930;2022-07-17T01:14:07;16.12;;;10.76;;
60641;SDS011;46837;52.446;-1.930;2022-07-17T01:15:07;15.16;;;11.68;;
60641;SDS011;46837;52.446;-1.930;2022-07-17T01:16:07;16.34;;;12.40;;
60641;SDS011;46837;52.446;-1.930;2022-07-17T01:17:07;16.36;;;13.42;;
60641;SDS011;46837;52.446;-1.930;2022-07-17T01:18:08;14.18;;;11.70;;
60641;SDS011;46837;52.446;-1.930;2022-07-17T01:19:07;14.48;;;11.54;;
60641;SDS011;46837;52.446;-1.930;2022-07-17T01:20:07;14.92;;;10.88;;
60641;SDS011;46837;52.446;-1.930;2022-07-17T01:21:07;17.82;;;14.00;;
60641;SDS011;46837;52.446;-1.930;2022-07-17T01:22:07;16.48;;;12.40;;
60641;SDS011;46837;52.446;-1.930;2022-07-17T01:23:07;15.34;;;11.46;;
60641;SDS011;46837;52.446;-1.930;2022-07-17T01:24:07;14.64;;;11.74;;
60641;SDS011;46837;52.446;-1.930;2022-07-17T01:25:07;16.28;;;12.20;;
60641;SDS011;46837;52.446;-1.930;2022-07-17T01:26:07;17.48;;;12.82;;
60641;SDS011;46837;52.446;-1.930;2022-07-17T01:27:07;16.72;;;13.10;;
60641;SDS011;46837;52.446;-1.930;2022-07-17T01:28:07;17.58;;;13.84;;
60641;SDS011;46837;52.446;-1.930;2022-07-17T01:29:08;19.30;;;12.92;;
60641;SDS011;46837;52.446;-1.930;2022-07-17T01:30:07;15.22;;;12.24;;
60641;SDS011;46837;52.446;-1.930;2022-07-17T01:31:07;17.52;;;13.42;;
60641;SDS011;46837;52.446;-1.930;2022-07-17T01:32:07;15.32;;;12.76;;
60641;SDS011;46837;52.446;-1.930;2022-07-17T01:33:07;16.98;;;13.28;;
60641;SDS011;46837;52.446;-1.930;2022-07-17T01:34:07;14.96;;;12.72;;
60641;SDS011;46837;52.446;-1.930;2022-07-17T01:35:07;19.30;;;13.64;;
60641;SDS011;46837;52.446;-1.930;2022-07-17T01:36:07;16.12;;;14.20;;
60641;SDS011;46837;52.446;-1.930;2022-07-17T01:37:07;21.58;;;14.32;;
60641;SDS011;46837;52.446;-1.930;2022-07-17T01:38:07;18.90;;;13.42;;
60641;SDS011;46837;52.446;-1.930;2022-07-17T01:39:07;24.66;;;15.06;;
60641;SDS011;46837;52.446;-1.930;2022-07-17T01:40:07;17.62;;;14.36;;
60641;SDS011;46837;52.446;-1.930;2022-07-17T01:41:07;17.78;;;12.98;;
60641;SDS011;46837;52.446;-1.930;2022-07-17T01:42:07;18.60;;;13.66;;
60641;SDS011;46837;52.446;-1.930;2022-07-17T01:43:07;18.26;;;13.04;;
60641;SDS011;46837;52.446;-1.930;2022-07-17T01:44:07;19.30;;;12.68;;
60641;SDS011;46837;52.446;-1.930;2022-07-17T01:45:07;14.00;;;12.14;;
60641;SDS011;46837;52.446;-1.930;2022-07-17T01:46:07;13.38;;;11.50;;
60641;SDS011;46837;52.446;-1.930;2022-07-17T01:47:07;16.46;;;13.42;;
60641;SDS011;46837;52.446;-1.930;2022-07-17T01:48:07;18.94;;;12.76;;
60641;SDS011;46837;52.446;-1.930;2022-07-17T01:49:07;16.58;;;12.72;;
60641;SDS011;46837;52.446;-1.930;2022-07-17T01:50:07;16.50;;;13.68;;
60641;SDS011;46837;52.446;-1.930;2022-07-17T01:51:07;17.44;;;13.32;;
60641;SDS011;46837;52.446;-1.930;2022-07-17T01:52:07;16.54;;;13.26;;
60641;SDS011;46837;52.446;-1.930;2022-07-17T01:53:07;23.90;;;12.22;;
60641;SDS011;46837;52.446;-1.930;2022-07-17T01:54:07;15.00;;;12.46;;
60641;SDS011;46837;52.446;-1.930;2022-07-17T01:55:07;18.72;;;12.16;;
60641;SDS011;46837;52.446;-1.930;2022-07-17T01:56:07;19.14;;;12.38;;
60641;SDS011;46837;52.446;-1.930;2022-07-17T01:57:07;15.38;;;12.56;;
60641;SDS011;46837;52.446;-1.930;2022-07-17T01:58:07;15.06;;;11.22;;
60641;SDS011;46837;52.446;-1.930;2022-07-17T01:59:07;15.96;;;12.70;;
60641;SDS011;46837;52.446;-1.930;2022-07-17T02:00:08;16.50;;;10.38;;
60641;SDS011;46837;52.446;-1.930;2022-07-17T02:01:07;16.50;;;11.06;;
60641;SDS011;46837;52.446;-1.930;2022-07-17T02:02:07;13.92;;;11.78;;
60641;SDS011;46837;52.446;-1.930;2022-07-17T02:03:07;13.32;;;11.28;;
60641;SDS011;46837;52.446;-1.930;2022-07-17T02:04:07;20.78;;;12.66;;
60641;SDS011;46837;52.446;-1.930;2022-07-17T02:05:07;16.96;;;13.22;;
60641;SDS011;46837;52.446;-1.930;2022-07-17T02:06:08;17.76;;;12.72;;
60641;SDS011;46837;52.446;-1.930;2022-07-17T02:07:07;12.02;;;10.64;;
60641;SDS011;46837;52.446;-1.930;2022-07-17T02:08:07;14.98;;;12.76;;
60641;SDS011;46837;52.446;-1.930;2022-07-17T02:09:07;15.60;;;12.38;;
60641;SDS011;46837;52.446;-1.930;2022-07-17T02:10:08;23.42;;;12.42;;
60641;SDS011;46837;52.446;-1.930;2022-07-17T02:11:07;14.08;;;12.34;;
60641;SDS011;46837;52.446;-1.930;2022-07-17T02:12:07;17.96;;;12.28;;
60641;SDS011;46837;52.446;-1.930;2022-07-17T02:13:07;19.90;;;12.62;;
60641;SDS011;46837;52.446;-1.930;2022-07-17T02:14:07;15.80;;;12.66;;
60641;SDS011;46837;52.446;-1.930;2022-07-17T02:15:07;17.28;;;12.14;;
60641;SDS011;46837;52.446;-1.930;2022-07-17T02:16:07;14.86;;;12.40;;
60641;SDS011;46837;52.446;-1.930;2022-07-17T02:17:07;19.08;;;11.44;;
60641;SDS011;46837;52.446;-1.930;2022-07-17T02:18:07;19.14;;;12.14;;
60641;SDS011;46837;52.446;-1.930;2022-07-17T02:19:07;18.74;;;12.18;;
60641;SDS011;46837;52.446;-1.930;2022-07-17T02:20:07;16.18;;;13.08;;
60641;SDS011;46837;52.446;-1.930;2022-07-17T02:21:07;28.42;;;13.32;;
60641;SDS011;46837;52.446;-1.930;2022-07-17T02:22:07;19.00;;;13.60;;
60641;SDS011;46837;52.446;-1.930;2022-07-17T02:23:07;18.34;;;12.98;;
60641;SDS011;46837;52.446;-1.930;2022-07-17T02:24:07;18.92;;;13.74;;
60641;SDS011;46837;52.446;-1.930;2022-07-17T02:25:07;17.52;;;12.86;;
60641;SDS011;46837;52.446;-1.930;2022-07-17T02:26:07;17.20;;;12.96;;
60641;SDS011;46837;52.446;-1.930;2022-07-17T02:27:07;17.14;;;13.38;;
60641;SDS011;46837;52.446;-1.930;2022-07-17T02:28:07;16.58;;;13.82;;
60641;SDS011;46837;52.446;-1.930;2022-07-17T02:29:07;19.54;;;14.38;;
60641;SDS011;46837;52.446;-1.930;2022-07-17T02:30:08;17.72;;;13.30;;
60641;SDS011;46837;52.446;-1.930;2022-07-17T02:31:07;17.76;;;13.88;;
60641;SDS011;46837;52.446;-1.930;2022-07-17T02:32:07;19.36;;;12.76;;
60641;SDS011;46837;52.446;-1.930;2022-07-17T02:33:07;22.00;;;12.96;;
60641;SDS011;46837;52.446;-1.930;2022-07-17T02:34:07;18.58;;;14.20;;
60641;SDS011;46837;52.446;-1.930;2022-07-17T02:35:07;14.80;;;12.86;;
60641;SDS011;46837;52.446;-1.930;2022-07-17T02:36:07;19.90;;;14.88;;
60641;SDS011;46837;52.446;-1.930;2022-07-17T02:37:07;19.52;;;13.72;;
60641;SDS011;46837;52.446;-1.930;2022-07-17T02:38:07;13.12;;;11.36;;
60641;SDS011;46837;52.446;-1.930;2022-07-17T02:39:07;20.64;;;13.10;;
60641;SDS011;46837;52.446;-1.930;2022-07-17T02:40:07;19.02;;;13.24;;
60641;SDS011;46837;52.446;-1.930;2022-07-17T02:41:07;14.96;;;12.18;;
60641;SDS011;46837;52.446;-1.930;2022-07-17T02:42:07;15.10;;;12.40;;
60641;SDS011;46837;52.446;-1.930;2022-07-17T02:43:07;13.92;;;12.24;;
60641;SDS011;46837;52.446;-1.930;2022-07-17T02:44:07;20.16;;;12.80;;
60641;SDS011;46837;52.446;-1.930;2022-07-17T02:45:07;13.30;;;11.92;;
60641;SDS011;46837;52.446;-1.930;2022-07-17T02:46:07;13.36;;;11.76;;
60641;SDS011;46837;52.446;-1.930;2022-07-17T02:47:07;14.74;;;12.20;;
60641;SDS011;46837;52.446;-1.930;2022-07-17T02:48:07;15.40;;;12.86;;
60641;SDS011;46837;52.446;-1.930;2022-07-17T02:49:07;17.76;;;12.84;;
60641;SDS011;46837;52.446;-1.930;2022-07-17T02:50:07;17.74;;;12.40;;
60641;SDS011;46837;52.446;-1.930;2022-07-17T02:51:07;19.90;;;12.52;;
60641;SDS011;46837;52.446;-1.930;2022-07-17T02:52:07;18.40;;;12.10;;
60641;SDS011;46837;52.446;-1.930;2022-07-17T02:53:07;14.06;;;12.48;;
60641;SDS011;46837;52.446;-1.930;2022-07-17T02:54:07;16.24;;;13.04;;
60641;SDS011;46837;52.446;-1.930;2022-07-17T02:55:07;18.88;;;13.96;;
60641;SDS011;46837;52.446;-1.930;2022-07-17T02:56:07;15.08;;;12.72;;
60641;SDS011;46837;52.446;-1.930;2022-07-17T02:57:07;19.60;;;12.78;;
60641;SDS011;46837;52.446;-1.930;2022-07-17T02:58:07;18.70;;;12.98;;
60641;SDS011;46837;52.446;-1.930;2022-07-17T02:59:07;15.88;;;13.30;;
60641;SDS011;46837;52.446;-1.930;2022-07-17T03:00:08;16.88;;;13.48;;
60641;SDS011;46837;52.446;-1.930;2022-07-17T03:01:07;14.16;;;11.82;;
60641;SDS011;46837;52.446;-1.930;2022-07-17T03:02:07;17.18;;;12.70;;
60641;SDS011;46837;52.446;-1.930;2022-07-17T03:03:07;16.52;;;12.38;;
60641;SDS011;46837;52.446;-1.930;2022-07-17T03:04:07;16.94;;;12.52;;
60641;SDS011;46837;52.446;-1.930;2022-07-17T03:05:07;18.00;;;12.74;;
60641;SDS011;46837;52.446;-1.930;2022-07-17T03:06:07;14.90;;;12.22;;
60641;SDS011;46837;52.446;-1.930;2022-07-17T03:07:07;16.12;;;12.40;;
60641;SDS011;46837;52.446;-1.930;2022-07-17T03:08:07;17.04;;;13.12;;
60641;SDS011;46837;52.446;-1.930;2022-07-17T03:09:07;16.76;;;12.76;;
60641;SDS011;46837;52.446;-1.930;2022-07-17T03:10:07;18.02;;;13.38;;
60641;SDS011;46837;52.446;-1.930;2022-07-17T03:11:07;15.10;;;12.00;;
60641;SDS011;46837;52.446;-1.930;2022-07-17T03:12:07;17.06;;;13.42;;
60641;SDS011;46837;52.446;-1.930;2022-07-17T03:13:07;18.90;;;13.38;;
60641;SDS011;46837;52.446;-1.930;2022-07-17T03:14:07;14.86;;;11.24;;
60641;SDS011;46837;52.446;-1.930;2022-07-17T03:15:07;14.44;;;12.28;;
60641;SDS011;46837;52.446;-1.930;2022-07-17T03:16:07;17.68;;;13.02;;
60641;SDS011;46837;52.446;-1.930;2022-07-17T03:17:07;12.66;;;11.20;;
60641;SDS011;46837;52.446;-1.930;2022-07-17T03:18:07;17.02;;;12.20;;
60641;SDS011;46837;52.446;-1.930;2022-07-17T03:19:07;16.78;;;11.46;;
60641;SDS011;46837;52.446;-1.930;2022-07-17T03:20:07;17.74;;;13.28;;
60641;SDS011;46837;52.446;-1.930;2022-07-17T03:21:07;16.80;;;13.62;;
60641;SDS011;46837;52.446;-1.930;2022-07-17T03:22:07;18.38;;;13.16;;
60641;SDS011;46837;52.446;-1.930;2022-07-17T03:23:07;16.98;;;12.84;;
60641;SDS011;46837;52.446;-1.930;2022-07-17T03:24:07;14.12;;;12.74;;
60641;SDS011;46837;52.446;-1.930;2022-07-17T03:25:07;16.58;;;14.04;;
60641;SDS011;46837;52.446;-1.930;2022-07-17T03:26:07;14.22;;;11.56;;
60641;SDS011;46837;52.446;-1.930;2022-07-17T03:27:07;15.64;;;12.76;;
60641;SDS011;46837;52.446;-1.930;2022-07-17T03:28:07;14.30;;;12.02;;
60641;SDS011;46837;52.446;-1.930;2022-07-17T03:29:07;16.42;;;13.88;;
60641;SDS011;46837;52.446;-1.930;2022-07-17T03:30:07;16.26;;;13.20;;
60641;SDS011;46837;52.446;-1.930;2022-07-17T03:31:07;19.56;;;14.14;;
60641;SDS011;46837;52.446;-1.930;2022-07-17T03:32:07;17.66;;;13.94;;
60641;SDS011;46837;52.446;-1.930;2022-07-17T03:33:07;19.30;;;13.36;;
60641;SDS011;46837;52.446;-1.930;2022-07-17T03:34:07;18.82;;;15.60;;
60641;SDS011;46837;52.446;-1.930;2022-07-17T03:35:07;20.40;;;15.34;;
60641;SDS011;46837;52.446;-1.930;2022-07-17T03:36:07;15.52;;;13.90;;
60641;SDS011;46837;52.446;-1.930;2022-07-17T03:37:07;20.00;;;13.92;;
60641;SDS011;46837;52.446;-1.930;2022-07-17T03:38:07;16.76;;;12.40;;
60641;SDS011;46837;52.446;-1.930;2022-07-17T03:39:07;18.04;;;15.00;;
60641;SDS011;46837;52.446;-1.930;2022-07-17T03:40:07;15.88;;;13.86;;
60641;SDS011;46837;52.446;-1.930;2022-07-17T03:41:07;19.76;;;13.34;;
60641;SDS011;46837;52.446;-1.930;2022-07-17T03:42:07;18.76;;;13.94;;
60641;SDS011;46837;52.446;-1.930;2022-07-17T03:43:07;16.04;;;14.08;;
60641;SDS011;46837;52.446;-1.930;2022-07-17T03:44:07;17.88;;;15.52;;
60641;SDS011;46837;52.446;-1.930;2022-07-17T03:45:07;17.50;;;13.82;;
60641;SDS011;46837;52.446;-1.930;2022-07-17T03:46:07;20.96;;;14.14;;
60641;SDS011;46837;52.446;-1.930;2022-07-17T03:47:07;17.32;;;14.42;;
60641;SDS011;46837;52.446;-1.930;2022-07-17T03:48:07;19.10;;;14.72;;
60641;SDS011;46837;52.446;-1.930;2022-07-17T03:49:07;18.12;;;13.64;;
60641;SDS011;46837;52.446;-1.930;2022-07-17T03:50:07;19.98;;;13.96;;
60641;SDS011;46837;52.446;-1.930;2022-07-17T03:51:07;20.38;;;14.12;;
60641;SDS011;46837;52.446;-1.930;2022-07-17T03:52:07;18.92;;;13.34;;
60641;SDS011;46837;52.446;-1.930;2022-07-17T03:53:07;18.90;;;14.62;;
60641;SDS011;46837;52.446;-1.930;2022-07-17T03:54:07;14.98;;;12.90;;
60641;SDS011;46837;52.446;-1.930;2022-07-17T03:55:07;23.28;;;16.66;;
60641;SDS011;46837;52.446;-1.930;2022-07-17T03:56:07;15.46;;;13.28;;
60641;SDS011;46837;52.446;-1.930;2022-07-17T03:57:07;20.92;;;14.58;;
60641;SDS011;46837;52.446;-1.930;2022-07-17T03:58:07;16.42;;;13.86;;
60641;SDS011;46837;52.446;-1.930;2022-07-17T03:59:07;16.54;;;12.20;;
60641;SDS011;46837;52.446;-1.930;2022-07-17T04:00:07;20.48;;;13.88;;
60641;SDS011;46837;52.446;-1.930;2022-07-17T04:01:07;21.64;;;14.78;;
60641;SDS011;46837;52.446;-1.930;2022-07-17T04:02:07;19.02;;;13.48;;
60641;SDS011;46837;52.446;-1.930;2022-07-17T04:03:07;15.34;;;12.96;;
60641;SDS011;46837;52.446;-1.930;2022-07-17T04:04:07;17.66;;;13.66;;
60641;SDS011;46837;52.446;-1.930;2022-07-17T04:05:10;18.52;;;14.40;;
60641;SDS011;46837;52.446;-1.930;2022-07-17T04:06:07;18.18;;;13.68;;
60641;SDS011;46837;52.446;-1.930;2022-07-17T04:07:07;18.26;;;14.20;;
60641;SDS011;46837;52.446;-1.930;2022-07-17T04:08:07;16.12;;;13.98;;
60641;SDS011;46837;52.446;-1.930;2022-07-17T04:09:07;18.06;;;15.00;;
60641;SDS011;46837;52.446;-1.930;2022-07-17T04:10:07;14.06;;;12.38;;
60641;SDS011;46837;52.446;-1.930;2022-07-17T04:11:07;15.34;;;12.54;;
60641;SDS011;46837;52.446;-1.930;2022-07-17T04:12:07;16.10;;;12.56;;
60641;SDS011;46837;52.446;-1.930;2022-07-17T04:13:07;15.24;;;12.70;;
60641;SDS011;46837;52.446;-1.930;2022-07-17T04:14:07;17.52;;;12.56;;
60641;SDS011;46837;52.446;-1.930;2022-07-17T04:15:07;19.00;;;14.42;;
60641;SDS011;46837;52.446;-1.930;2022-07-17T04:16:07;16.34;;;13.00;;
60641;SDS011;46837;52.446;-1.930;2022-07-17T04:17:07;15.00;;;13.30;;
60641;SDS011;46837;52.446;-1.930;2022-07-17T04:18:07;19.22;;;13.76;;
60641;SDS011;46837;52.446;-1.930;2022-07-17T04:19:07;15.36;;;12.50;;
60641;SDS011;46837;52.446;-1.930;2022-07-17T04:20:07;20.20;;;16.38;;
60641;SDS011;46837;52.446;-1.930;2022-07-17T04:21:07;18.06;;;14.90;;
60641;SDS011;46837;52.446;-1.930;2022-07-17T04:22:07;16.84;;;13.48;;
60641;SDS011;46837;52.446;-1.930;2022-07-17T04:23:07;18.40;;;12.84;;
60641;SDS011;46837;52.446;-1.930;2022-07-17T04:24:07;14.36;;;12.86;;
60641;SDS011;46837;52.446;-1.930;2022-07-17T04:25:07;18.26;;;14.92;;
60641;SDS011;46837;52.446;-1.930;2022-07-17T04:26:07;20.32;;;14.28;;
60641;SDS011;46837;52.446;-1.930;2022-07-17T04:27:07;17.40;;;13.60;;
60641;SDS011;46837;52.446;-1.930;2022-07-17T04:28:07;14.36;;;12.84;;
60641;SDS011;46837;52.446;-1.930;2022-07-17T04:29:07;17.04;;;12.94;;
60641;SDS011;46837;52.446;-1.930;2022-07-17T04:30:07;17.08;;;13.82;;
60641;SDS011;46837;52.446;-1.930;2022-07-17T04:31:07;19.76;;;14.00;;
60641;SDS011;46837;52.446;-1.930;2022-07-17T04:32:07;16.26;;;13.78;;
60641;SDS011;46837;52.446;-1.930;2022-07-17T04:33:07;16.06;;;13.42;;
60641;SDS011;46837;52.446;-1.930;2022-07-17T04:34:07;17.76;;;13.44;;
60641;SDS011;46837;52.446;-1.930;2022-07-17T04:35:07;16.14;;;12.56;;
60641;SDS011;46837;52.446;-1.930;2022-07-17T04:36:07;18.14;;;13.26;;
60641;SDS011;46837;52.446;-1.930;2022-07-17T04:37:07;19.02;;;13.40;;
60641;SDS011;46837;52.446;-1.930;2022-07-17T04:38:07;17.98;;;13.24;;
60641;SDS011;46837;52.446;-1.930;2022-07-17T04:39:07;16.60;;;13.80;;
60641;SDS011;46837;52.446;-1.930;2022-07-17T04:40:07;15.70;;;12.28;;
60641;SDS011;46837;52.446;-1.930;2022-07-17T04:41:07;15.80;;;12.10;;
60641;SDS011;46837;52.446;-1.930;2022-07-17T04:42:07;14.60;;;12.62;;
60641;SDS011;46837;52.446;-1.930;2022-07-17T04:43:07;16.56;;;11.68;;
60641;SDS011;46837;52.446;-1.930;2022-07-17T04:44:07;12.08;;;10.30;;
60641;SDS011;46837;52.446;-1.930;2022-07-17T04:45:07;12.88;;;10.04;;
60641;SDS011;46837;52.446;-1.930;2022-07-17T04:46:07;13.52;;;9.98;;
60641;SDS011;46837;52.446;-1.930;2022-07-17T04:47:07;10.64;;;9.54;;
60641;SDS011;46837;52.446;-1.930;2022-07-17T04:48:07;10.18;;;9.12;;
60641;SDS011;46837;52.446;-1.930;2022-07-17T04:49:07;11.26;;;8.42;;
60641;SDS011;46837;52.446;-1.930;2022-07-17T04:50:07;10.18;;;6.90;;
60641;SDS011;46837;52.446;-1.930;2022-07-17T04:51:07;9.88;;;7.42;;
60641;SDS011;46837;52.446;-1.930;2022-07-17T04:52:07;8.22;;;7.34;;
60641;SDS011;46837;52.446;-1.930;2022-07-17T04:53:07;17.20;;;7.66;;
60641;SDS011;46837;52.446;-1.930;2022-07-17T04:54:07;7.62;;;6.54;;
60641;SDS011;46837;52.446;-1.930;2022-07-17T04:55:07;8.36;;;7.32;;
60641;SDS011;46837;52.446;-1.930;2022-07-17T04:56:07;6.38;;;5.80;;
60641;SDS011;46837;52.446;-1.930;2022-07-17T04:57:07;7.50;;;6.70;;
60641;SDS011;46837;52.446;-1.930;2022-07-17T04:58:07;10.76;;;7.94;;
60641;SDS011;46837;52.446;-1.930;2022-07-17T04:59:07;10.82;;;7.12;;
60641;SDS011;46837;52.446;-1.930;2022-07-17T05:00:07;9.46;;;6.68;;
60641;SDS011;46837;52.446;-1.930;2022-07-17T05:01:07;8.54;;;6.44;;
60641;SDS011;46837;52.446;-1.930;2022-07-17T05:02:07;8.52;;;6.52;;
60641;SDS011;46837;52.446;-1.930;2022-07-17T05:03:07;12.18;;;5.96;;
60641;SDS011;46837;52.446;-1.930;2022-07-17T05:04:07;8.96;;;6.24;;
60641;SDS011;46837;52.446;-1.930;2022-07-17T05:05:07;7.38;;;6.26;;
60641;SDS011;46837;52.446;-1.930;2022-07-17T05:06:07;12.78;;;6.70;;
60641;SDS011;46837;52.446;-1.930;2022-07-17T05:07:07;6.98;;;5.88;;
60641;SDS011;46837;52.446;-1.930;2022-07-17T05:08:07;9.26;;;6.22;;
60641;SDS011;46837;52.446;-1.930;2022-07-17T05:09:07;8.82;;;5.78;;
60641;SDS011;46837;52.446;-1.930;2022-07-17T05:10:07;10.80;;;7.12;;
60641;SDS011;46837;52.446;-1.930;2022-07-17T05:11:07;6.94;;;5.94;;
60641;SDS011;46837;52.446;-1.930;2022-07-17T05:12:07;7.52;;;6.02;;
60641;SDS011;46837;52.446;-1.930;2022-07-17T05:13:07;6.58;;;5.90;;
60641;SDS011;46837;52.446;-1.930;2022-07-17T05:14:07;6.42;;;5.44;;
60641;SDS011;46837;52.446;-1.930;2022-07-17T05:15:07;7.36;;;5.18;;
60641;SDS011;46837;52.446;-1.930;2022-07-17T05:16:07;10.22;;;6.68;;
60641;SDS011;46837;52.446;-1.930;2022-07-17T05:17:07;8.08;;;5.66;;
60641;SDS011;46837;52.446;-1.930;2022-07-17T05:18:07;6.92;;;6.32;;
60641;SDS011;46837;52.446;-1.930;2022-07-17T05:19:07;6.18;;;5.50;;
60641;SDS011;46837;52.446;-1.930;2022-07-17T05:20:07;7.02;;;5.12;;
60641;SDS011;46837;52.446;-1.930;2022-07-17T05:21:07;8.46;;;6.12;;
60641;SDS011;46837;52.446;-1.930;2022-07-17T05:22:07;8.76;;;5.44;;
60641;SDS011;46837;52.446;-1.930;2022-07-17T05:23:07;7.80;;;5.70;;
60641;SDS011;46837;52.446;-1.930;2022-07-17T05:24:07;5.70;;;4.80;;
60641;SDS011;46837;52.446;-1.930;2022-07-17T05:25:07;5.88;;;5.30;;
60641;SDS011;46837;52.446;-1.930;2022-07-17T05:26:07;5.96;;;5.28;;
60641;SDS011;46837;52.446;-1.930;2022-07-17T05:27:07;5.60;;;5.04;;
60641;SDS011;46837;52.446;-1.930;2022-07-17T05:28:07;7.38;;;5.96;;
60641;SDS011;46837;52.446;-1.930;2022-07-17T05:29:07;9.12;;;5.84;;
60641;SDS011;46837;52.446;-1.930;2022-07-17T05:30:07;7.02;;;5.68;;
60641;SDS011;46837;52.446;-1.930;2022-07-17T05:31:07;6.40;;;5.44;;
60641;SDS011;46837;52.446;-1.930;2022-07-17T05:32:07;6.18;;;5.58;;
60641;SDS011;46837;52.446;-1.930;2022-07-17T05:33:07;8.70;;;5.92;;
60641;SDS011;46837;52.446;-1.930;2022-07-17T05:34:07;6.64;;;5.92;;
60641;SDS011;46837;52.446;-1.930;2022-07-17T05:35:07;7.52;;;5.50;;
60641;SDS011;46837;52.446;-1.930;2022-07-17T05:36:07;7.78;;;6.00;;
60641;SDS011;46837;52.446;-1.930;2022-07-17T05:37:07;5.84;;;5.34;;
60641;SDS011;46837;52.446;-1.930;2022-07-17T05:38:07;6.94;;;6.20;;
60641;SDS011;46837;52.446;-1.930;2022-07-17T05:39:07;7.12;;;6.40;;
60641;SDS011;46837;52.446;-1.930;2022-07-17T05:40:07;9.18;;;6.12;;
60641;SDS011;46837;52.446;-1.930;2022-07-17T05:41:07;8.80;;;5.86;;
60641;SDS011;46837;52.446;-1.930;2022-07-17T05:42:07;6.90;;;6.16;;
60641;SDS011;46837;52.446;-1.930;2022-07-17T05:43:07;9.14;;;6.04;;
60641;SDS011;46837;52.446;-1.930;2022-07-17T05:44:07;7.14;;;6.44;;
60641;SDS011;46837;52.446;-1.930;2022-07-17T05:45:07;19.76;;;7.18;;
60641;SDS011;46837;52.446;-1.930;2022-07-17T05:46:07;7.30;;;5.50;;
60641;SDS011;46837;52.446;-1.930;2022-07-17T05:47:07;7.42;;;5.64;;